Time;durP1;ratioP1;P1;durP2;ratioP2;P2;SDS_P1;SDS_P2;PMS_P1;PMS_P2;Temp;Humidity;BMP_temperature;BMP_pressure;BME280_temperature;BME280_humidity;BME280_pressure;Samples;Min_cycle;Max_cycle;Signal;HPM_P1;HPM_P2
2022/05/16 00:01:43;;;;;;;;;;;18.40;99.90;;;;;;6371147;22;19948;-84
2022/05/16 00:04:09;;;;;;;;;;;18.30;99.90;;;;;;6370661;22;19907;-84
2022/05/16 00:06:34;;;;;;;;;;;18.30;99.90;;;;;;6369573;22;20266;-84
2022/05/16 00:09:00;;;;;;;;;;;18.30;99.90;;;;;;6371437;22;19917;-84
2022/05/16 00:11:25;;;;;;;;;;;18.20;99.90;;;;;;6372004;22;19909;-84
2022/05/16 00:13:51;;;;;;;;;;;18.20;99.90;;;;;;6370896;22;19902;-83
2022/05/16 00:16:16;;;;;;;;;;;18.10;99.90;;;;;;6371306;22;19906;-84
2022/05/16 00:18:42;;;;;;;;;;;18.10;99.90;;;;;;6369597;22;19910;-84
2022/05/16 00:21:07;;;;;;;;;;;18.00;99.90;;;;;;6368994;22;20236;-84
2022/05/16 00:23:32;;;;;;;;;;;18.00;99.90;;;;;;6371543;22;20059;-84
2022/05/16 00:26:00;;;;;;;;;;;18.00;99.90;;;;;;6368514;22;19906;-84
2022/05/16 00:28:26;;;;;;;;;;;18.00;99.90;;;;;;6369249;22;19949;-84
2022/05/16 00:30:51;;;;;;;;;;;18.00;99.90;;;;;;6370358;22;20346;-84
2022/05/16 00:33:17;;;;;;;;;;;18.00;99.90;;;;;;6368806;22;19959;-84
2022/05/16 00:35:44;;;;;;;;;;;18.00;99.90;;;;;;6367715;22;19922;-83
2022/05/16 00:38:10;;;;;;;;;;;18.00;99.90;;;;;;6369037;22;19924;-84
2022/05/16 00:40:36;;;;;;;;;;;18.00;99.90;;;;;;6370402;22;19985;-84
2022/05/16 00:43:07;;;;;;;;;;;18.00;99.90;;;;;;6370112;22;20519;-84
2022/05/16 00:45:32;;;;;;;;;;;17.90;99.90;;;;;;6369896;22;20297;-83
2022/05/16 00:48:00;;;;;;;;;;;17.90;99.90;;;;;;6368945;22;19903;-84
2022/05/16 00:50:29;;;;;;;;;;;17.90;99.90;;;;;;6370451;22;19925;-84
2022/05/16 00:52:55;;;;;;;;;;;17.80;99.90;;;;;;6370429;22;19924;-83
2022/05/16 00:55:22;;;;;;;;;;;17.70;99.90;;;;;;6370559;22;19906;-84
2022/05/16 00:57:50;;;;;;;;;;;17.70;99.90;;;;;;6369433;22;19906;-84
2022/05/16 01:00:21;;;;;;;;;;;17.60;99.90;;;;;;6369912;22;20278;-84
2022/05/16 01:05:38;;;;;;;;;;;17.60;99.90;;;;;;6370262;22;20344;-84
2022/05/16 01:08:05;;;;;;;;;;;17.50;99.90;;;;;;6369794;22;19910;-84
2022/05/16 01:10:31;;;;;;;;;;;17.50;99.90;;;;;;6369400;22;19908;-84
2022/05/16 01:12:57;;;;;;;;;;;17.50;99.90;;;;;;6368508;22;19946;-84
2022/05/16 01:15:45;;;;;;;;;;;17.50;99.90;;;;;;6370608;22;19902;-83
2022/05/16 01:18:12;;;;;;;;;;;17.50;99.90;;;;;;6347932;22;19909;-84
2022/05/16 01:20:40;;;;;;;;;;;17.40;99.90;;;;;;6370316;22;19909;-84
2022/05/16 01:23:06;;;;;;;;;;;17.40;99.90;;;;;;6368246;22;19971;-84
2022/05/16 01:25:31;;;;;;;;;;;17.50;99.90;;;;;;6370132;22;19902;-84
2022/05/16 01:27:58;;;;;;;;;;;17.50;99.90;;;;;;6369319;22;19909;-83
2022/05/16 01:30:29;;;;;;;;;;;17.50;99.90;;;;;;6369668;22;19906;-83
2022/05/16 01:32:55;;;;;;;;;;;17.50;99.90;;;;;;6368805;22;19938;-84
2022/05/16 05:00:38;;;;;;;;;;;18.70;99.90;;;;;;6224701;23;19926;-85
2022/05/16 05:34:38;;;;;;;;;;;18.50;99.90;;;;;;6363479;22;19918;-86
2022/05/16 05:37:04;;;;;;;;;;;18.50;99.90;;;;;;6367793;22;19940;-87
2022/05/16 05:39:31;;;;;;;;;;;18.50;99.90;;;;;;6368020;22;20391;-86
2022/05/16 05:41:57;;;;;;;;;;;18.60;99.90;;;;;;6369600;22;20328;-87
2022/05/16 05:44:22;;;;;;;;;;;18.60;99.90;;;;;;6369346;22;19993;-86
2022/05/16 05:46:48;;;;;;;;;;;18.60;99.90;;;;;;6369685;22;19909;-86
2022/05/16 05:49:14;;;;;;;;;;;18.60;99.90;;;;;;6369457;22;19913;-87
2022/05/16 05:51:39;;;;;;;;;;;18.70;99.90;;;;;;6368995;22;19931;-86
2022/05/16 05:54:05;;;;;;;;;;;18.70;99.90;;;;;;6371829;22;19902;-86
2022/05/16 05:56:31;;;;;;;;;;;18.80;99.90;;;;;;6369626;22;19928;-86
2022/05/16 05:58:56;;;;;;;;;;;18.80;99.90;;;;;;6370485;22;19902;-86
2022/05/16 06:01:22;;;;;;;;;;;18.90;99.90;;;;;;6369801;22;19906;-87
2022/05/16 06:03:48;;;;;;;;;;;18.90;99.90;;;;;;6368906;22;19937;-87
2022/05/16 06:06:14;;;;;;;;;;;18.90;99.90;;;;;;6370389;22;19990;-87
2022/05/16 06:08:39;;;;;;;;;;;19.00;99.90;;;;;;6371473;22;20413;-87
2022/05/16 06:11:05;;;;;;;;;;;19.00;99.90;;;;;;6371012;22;19906;-86
2022/05/16 06:13:30;;;;;;;;;;;19.10;99.90;;;;;;6372180;22;20307;-87
2022/05/16 06:15:58;;;;;;;;;;;19.10;99.90;;;;;;6372339;22;19910;-87
2022/05/16 06:18:24;;;;;;;;;;;19.20;99.90;;;;;;6373147;22;19902;-87
2022/05/16 06:20:49;;;;;;;;;;;19.20;99.90;;;;;;6372009;22;19914;-81
2022/05/16 06:23:15;;;;;;;;;;;19.20;99.90;;;;;;6372703;22;19913;-86
2022/05/16 06:25:42;;;;;;;;;;;19.30;99.90;;;;;;6374667;22;19909;-86
2022/05/16 06:28:12;;;;;;;;;;;19.20;99.90;;;;;;6374808;22;19903;-86
2022/05/16 06:30:41;;;;;;;;;;;19.20;99.90;;;;;;6373525;22;19902;-86
2022/05/16 06:33:07;;;;;;;;;;;19.10;99.90;;;;;;6370683;22;19940;-86
2022/05/16 06:35:34;;;;;;;;;;;19.10;99.90;;;;;;6372846;22;20248;-87
2022/05/16 06:38:10;;;;;;;;;;;19.10;99.90;;;;;;6372535;22;19906;-86
2022/05/16 06:40:35;;;;;;;;;;;19.20;99.90;;;;;;6373233;22;19902;-86
2022/05/16 06:43:01;;;;;;;;;;;19.20;99.90;;;;;;6372600;22;20315;-86
2022/05/16 06:45:26;;;;;;;;;;;19.30;99.90;;;;;;6372742;22;20343;-86
2022/05/16 06:47:52;;;;;;;;;;;19.40;99.90;;;;;;6371784;22;19955;-87
2022/05/16 06:50:17;;;;;;;;;;;19.40;99.90;;;;;;6369665;22;19902;-86
2022/05/16 06:52:43;;;;;;;;;;;19.40;99.90;;;;;;6369562;22;20217;-88
2022/05/16 06:55:09;;;;;;;;;;;19.40;99.90;;;;;;6370705;22;19960;-87
2022/05/16 06:57:35;;;;;;;;;;;19.40;99.90;;;;;;6370937;22;19946;-86
2022/05/16 07:00:00;;;;;;;;;;;19.40;99.90;;;;;;6370867;22;19902;-87
2022/05/16 07:02:26;;;;;;;;;;;19.50;99.90;;;;;;6371754;22;19994;-87
2022/05/16 07:04:52;;;;;;;;;;;19.50;99.90;;;;;;6370649;22;19913;-87
2022/05/16 07:07:17;;;;;;;;;;;19.50;99.90;;;;;;6369541;22;19977;-87
2022/05/16 07:09:43;;;;;;;;;;;19.70;99.90;;;;;;6370003;22;20303;-87
2022/05/16 07:12:09;;;;;;;;;;;19.70;99.90;;;;;;6370669;22;19914;-86
2022/05/16 07:14:35;;;;;;;;;;;19.80;99.90;;;;;;6371731;22;20308;-87
2022/05/16 07:17:01;;;;;;;;;;;19.90;99.90;;;;;;6370770;22;19902;-87
2022/05/16 07:19:29;;;;;;;;;;;20.10;99.90;;;;;;6371003;22;19906;-87
2022/05/16 07:21:55;;;;;;;;;;;20.20;99.90;;;;;;6371589;22;19903;-86
2022/05/16 07:24:21;;;;;;;;;;;20.20;99.90;;;;;;6370301;22;20359;-88
2022/05/16 07:29:30;;;;;;;;;;;20.30;99.90;;;;;;6372434;22;20280;-88
2022/05/16 07:31:57;;;;;;;;;;;20.40;99.90;;;;;;6372454;22;19903;-88
2022/05/16 07:34:22;;;;;;;;;;;20.50;99.90;;;;;;6369848;22;19904;-88
2022/05/16 07:36:48;;;;;;;;;;;20.70;99.90;;;;;;6365550;22;19930;-80
2022/05/16 07:39:13;;;;;;;;;;;20.90;99.90;;;;;;6316950;22;19948;-81
2022/05/16 07:41:49;;;;;;;;;;;21.20;99.90;;;;;;6315211;22;19925;-81
2022/05/16 07:44:15;;;;;;;;;;;21.30;99.90;;;;;;6315972;22;19915;-83
2022/05/16 07:46:40;;;;;;;;;;;21.50;99.90;;;;;;6288612;22;19903;-81
2022/05/16 07:49:06;;;;;;;;;;;21.90;99.90;;;;;;6345658;22;19960;-81
2022/05/16 07:51:31;;;;;;;;;;;22.00;99.90;;;;;;6318906;22;19910;-81
2022/05/16 07:53:57;;;;;;;;;;;22.30;99.90;;;;;;6346760;22;19903;-82
2022/05/16 07:56:22;;;;;;;;;;;22.40;99.90;;;;;;6345486;22;19903;-81
2022/05/16 07:58:47;;;;;;;;;;;22.60;99.90;;;;;;6322081;22;19910;-80
2022/05/16 08:01:13;;;;;;;;;;;23.20;99.90;;;;;;6348427;22;19903;-81
2022/05/16 08:03:38;;;;;;;;;;;25.10;99.90;;;;;;6319856;22;19914;-81
2022/05/16 08:06:04;;;;;;;;;;;26.10;99.90;;;;;;6345334;22;19906;-81
2022/05/16 08:11:14;;;;;;;;;;;26.60;99.90;;;;;;6346861;22;19948;-81
2022/05/16 08:13:41;;;;;;;;;;;29.50;99.90;;;;;;6319554;22;20283;-82
2022/05/16 08:16:07;;;;;;;;;;;34.50;99.90;;;;;;6348316;22;19926;-82
2022/05/16 08:18:32;;;;;;;;;;;39.00;99.90;;;;;;6321250;22;19907;-82
2022/05/16 08:20:59;;;;;;;;;;;41.60;99.90;;;;;;6346883;22;19924;-82
2022/05/16 08:23:27;;;;;;;;;;;42.10;99.90;;;;;;6347581;22;20409;-82
2022/05/16 08:25:53;;;;;;;;;;;40.50;99.90;;;;;;6349103;22;19944;-82
2022/05/16 08:28:19;;;;;;;;;;;38.60;99.90;;;;;;6347177;22;19949;-82
2022/05/16 08:30:45;;;;;;;;;;;37.50;99.90;;;;;;6348971;22;19995;-82
2022/05/16 08:33:11;;;;;;;;;;;40.20;99.90;;;;;;6321599;22;19928;-82
2022/05/16 08:35:36;;;;;;;;;;;39.50;99.90;;;;;;6349634;22;19903;-82
2022/05/16 08:40:58;;;;;;;;;;;38.10;99.90;;;;;;6347010;22;19909;-82
2022/05/16 08:43:26;;;;;;;;;;;41.30;99.90;;;;;;6344202;22;19907;-84
2022/05/16 08:45:57;;;;;;;;;;;43.90;99.90;;;;;;6344984;22;19902;-82
2022/05/16 08:48:25;;;;;;;;;;;45.60;99.90;;;;;;6341164;22;20221;-82
2022/05/16 08:50:52;;;;;;;;;;;47.20;99.90;;;;;;6342096;22;19910;-82
2022/05/16 08:53:23;;;;;;;;;;;47.40;99.90;;;;;;6341096;22;19994;-82
2022/05/16 08:55:51;;;;;;;;;;;46.70;99.90;;;;;;6340417;22;19902;-82
2022/05/16 08:58:25;;;;;;;;;;;46.50;99.90;;;;;;6341521;22;19930;-82
2022/05/16 09:00:54;;;;;;;;;;;47.00;99.90;;;;;;6341982;22;19903;-82
2022/05/16 09:03:23;;;;;;;;;;;48.70;99.90;;;;;;6340287;22;19906;-82
2022/05/16 09:05:51;;;;;;;;;;;48.00;99.90;;;;;;6343362;22;19989;-82
2022/05/16 09:08:31;;;;;;;;;;;48.40;99.90;;;;;;6340433;22;20305;-82
2022/05/16 09:11:12;;;;;;;;;;;48.40;99.90;;;;;;6342008;22;19910;-83
2022/05/16 09:13:52;;;;;;;;;;;48.80;99.90;;;;;;6343904;22;19910;-79
2022/05/16 09:16:27;;;;;;;;;;;49.70;99.90;;;;;;6342261;22;19918;-81
2022/05/16 09:18:52;;;;;;;;;;;50.60;99.90;;;;;;6339423;22;19902;-82
2022/05/16 09:21:20;;;;;;;;;;;50.60;99.90;;;;;;6340394;22;19907;-82
2022/05/16 09:23:55;;;;;;;;;;;50.90;99.90;;;;;;6345060;22;19906;-81
2022/05/16 09:26:20;;;;;;;;;;;51.40;99.90;;;;;;6341680;22;19985;-82
2022/05/16 09:28:48;;;;;;;;;;;51.30;99.90;;;;;;6343208;22;19903;-82
2022/05/16 09:31:23;;;;;;;;;;;51.30;99.90;;;;;;6342266;22;19924;-81
2022/05/16 09:33:54;;;;;;;;;;;49.90;99.90;;;;;;6344780;22;20276;-82
2022/05/16 09:36:23;;;;;;;;;;;49.90;99.90;;;;;;6345090;22;19933;-81
2022/05/16 09:38:49;;;;;;;;;;;50.30;99.90;;;;;;6345127;22;19959;-81
2022/05/16 09:41:19;;;;;;;;;;;50.80;99.90;;;;;;6345964;22;19950;-81
2022/05/16 09:43:50;;;;;;;;;;;51.20;99.90;;;;;;6315685;22;19937;-81
2022/05/16 09:46:23;;;;;;;;;;;51.10;99.90;;;;;;6316990;22;19903;-82
2022/05/16 09:48:55;;;;;;;;;;;50.90;99.90;;;;;;6344357;22;19903;-81
2022/05/16 09:51:20;;;;;;;;;;;51.00;99.90;;;;;;6346070;22;19906;-82
2022/05/16 09:53:46;;;;;;;;;;;50.20;99.90;;;;;;6346847;22;20028;-82
2022/05/16 09:56:25;;;;;;;;;;;48.40;99.90;;;;;;6319102;22;19907;-82
2022/05/16 09:58:54;;;;;;;;;;;47.40;99.90;;;;;;6349122;22;19907;-82
2022/05/16 10:01:40;;;;;;;;;;;46.60;99.90;;;;;;6322286;22;19907;-81
2022/05/16 10:04:09;;;;;;;;;;;46.10;99.90;;;;;;6320269;22;19906;-81
2022/05/16 10:06:37;;;;;;;;;;;47.20;99.90;;;;;;6347470;22;19977;-82
2022/05/16 10:09:14;;;;;;;;;;;48.10;99.90;;;;;;6348249;22;19906;-81
2022/05/16 10:11:40;;;;;;;;;;;48.00;99.90;;;;;;6320355;22;19910;-81
2022/05/16 10:14:05;;;;;;;;;;;45.70;99.90;;;;;;6346059;22;19911;-81
2022/05/16 10:16:31;;;;;;;;;;;44.80;99.90;;;;;;6346605;22;19903;-81
2022/05/16 10:19:01;;;;;;;;;;;43.60;99.90;;;;;;6347862;22;19903;-81
2022/05/16 10:21:28;;;;;;;;;;;43.70;99.90;;;;;;6319864;22;19938;-81
2022/05/16 10:23:55;;;;;;;;;;;44.30;99.90;;;;;;6319841;22;20296;-81
2022/05/16 10:26:22;;;;;;;;;;;45.40;99.90;;;;;;6319104;22;19906;-81
2022/05/16 10:28:52;;;;;;;;;;;45.10;99.90;;;;;;6319450;22;20275;-81
2022/05/16 10:34:07;;;;;;;;;;;42.60;99.90;;;;;;6348713;22;19914;-79
2022/05/16 10:36:33;;;;;;;;;;;40.00;99.90;;;;;;6320905;22;19902;-79
2022/05/16 10:39:25;;;;;;;;;;;38.30;99.30;;;;;;6348282;22;19917;-79
2022/05/16 10:42:11;;;;;;;;;;;36.80;98.10;;;;;;6340528;22;19946;-79
2022/05/16 10:44:55;;;;;;;;;;;35.50;98.40;;;;;;6348966;22;19990;-79
2022/05/16 10:47:24;;;;;;;;;;;34.50;99.20;;;;;;6344399;22;19938;-80
2022/05/16 10:49:55;;;;;;;;;;;33.90;99.90;;;;;;6343676;22;19928;-80
2022/05/16 10:52:23;;;;;;;;;;;33.60;99.90;;;;;;6344156;22;19906;-80
2022/05/16 10:54:49;;;;;;;;;;;33.70;99.90;;;;;;6345488;22;20359;-81
2022/05/16 10:57:33;;;;;;;;;;;33.60;99.90;;;;;;6342943;22;19906;-81
2022/05/16 11:00:07;;;;;;;;;;;34.20;99.90;;;;;;6345796;22;19930;-81
2022/05/16 11:02:32;;;;;;;;;;;33.90;99.90;;;;;;6347526;22;19943;-80
2022/05/16 11:05:09;;;;;;;;;;;33.50;99.90;;;;;;6354276;22;19967;-80
2022/05/16 11:07:46;;;;;;;;;;;33.50;99.90;;;;;;6358127;22;19951;-80
2022/05/16 11:10:18;;;;;;;;;;;33.50;99.90;;;;;;6353424;22;20012;-81
2022/05/16 11:12:47;;;;;;;;;;;33.90;99.90;;;;;;6345928;22;19903;-80
2022/05/16 11:15:19;;;;;;;;;;;34.50;99.90;;;;;;6345872;22;20325;-80
2022/05/16 11:17:48;;;;;;;;;;;35.00;99.90;;;;;;6345639;22;19910;-81
2022/05/16 11:20:16;;;;;;;;;;;35.00;99.90;;;;;;6346941;22;19926;-81
2022/05/16 11:22:42;;;;;;;;;;;36.80;99.90;;;;;;6347100;22;20240;-80
2022/05/16 11:25:16;;;;;;;;;;;37.80;99.90;;;;;;6344814;22;19903;-81
2022/05/16 11:27:57;;;;;;;;;;;37.70;99.90;;;;;;6344809;22;19902;-81
2022/05/16 11:30:25;;;;;;;;;;;37.80;99.90;;;;;;6345939;22;19914;-81
2022/05/16 11:33:23;;;;;;;;;;;37.80;99.90;;;;;;6345137;22;20009;-81
2022/05/16 11:35:50;;;;;;;;;;;36.50;99.90;;;;;;6277309;22;20245;-80
2022/05/16 11:38:21;;;;;;;;;;;34.50;99.90;;;;;;6345150;22;20325;-80
2022/05/16 11:41:05;;;;;;;;;;;33.80;99.90;;;;;;6346576;22;19929;-80
2022/05/16 11:43:32;;;;;;;;;;;33.10;99.90;;;;;;6319214;22;19944;-84
2022/05/16 11:46:17;;;;;;;;;;;34.10;99.90;;;;;;6346757;22;19903;-81
2022/05/16 11:48:43;;;;;;;;;;;35.00;99.90;;;;;;6319945;22;19955;-81
2022/05/16 11:51:14;;;;;;;;;;;34.50;99.90;;;;;;6347038;22;20336;-80
2022/05/16 11:53:54;;;;;;;;;;;34.40;99.90;;;;;;6319469;22;19913;-81
2022/05/16 12:02:16;;;;;;;;;;;34.00;99.90;;;;;;6347025;22;19909;-81
2022/05/16 12:04:47;;;;;;;;;;;34.10;99.90;;;;;;6347893;22;19907;-80
2022/05/16 12:07:14;;;;;;;;;;;34.80;99.90;;;;;;6319389;22;19903;-80
2022/05/16 12:09:51;;;;;;;;;;;35.20;99.90;;;;;;6318674;22;19907;-81
2022/05/16 12:12:34;;;;;;;;;;;35.40;99.90;;;;;;6319075;22;19902;-81
2022/05/16 12:15:18;;;;;;;;;;;35.00;99.90;;;;;;6347985;22;19906;-81
2022/05/16 12:17:55;;;;;;;;;;;34.20;99.90;;;;;;6348202;22;19902;-82
2022/05/16 12:20:50;;;;;;;;;;;33.60;99.90;;;;;;6346101;22;19907;-82
2022/05/16 12:23:35;;;;;;;;;;;32.80;99.90;;;;;;6264291;22;19925;-82
2022/05/16 12:26:01;;;;;;;;;;;32.10;99.90;;;;;;6319158;22;19954;-81
2022/05/16 12:28:30;;;;;;;;;;;31.60;99.90;;;;;;6318794;22;19907;-81
2022/05/16 12:30:57;;;;;;;;;;;31.40;99.90;;;;;;6319912;22;20028;-82
2022/05/16 12:33:22;;;;;;;;;;;31.40;99.90;;;;;;6347292;22;19907;-81
2022/05/16 12:35:48;;;;;;;;;;;31.40;99.90;;;;;;6346706;22;19945;-82
2022/05/16 12:38:15;;;;;;;;;;;31.10;99.90;;;;;;6335421;22;19997;-81
2022/05/16 12:40:59;;;;;;;;;;;31.20;99.90;;;;;;6347029;22;19907;-81
2022/05/16 12:43:43;;;;;;;;;;;31.10;99.90;;;;;;6345191;22;19906;-82
2022/05/16 12:46:27;;;;;;;;;;;30.70;99.90;;;;;;6344971;22;19902;-80
2022/05/16 12:49:11;;;;;;;;;;;31.00;99.90;;;;;;6345841;22;19909;-81
2022/05/16 12:51:40;;;;;;;;;;;30.60;99.90;;;;;;6346465;22;19938;-81
2022/05/16 12:54:08;;;;;;;;;;;30.30;99.90;;;;;;6345851;22;20275;-81
2022/05/16 12:56:48;;;;;;;;;;;30.30;99.90;;;;;;6344042;22;20225;-83
2022/05/16 12:59:19;;;;;;;;;;;30.60;99.90;;;;;;6344229;22;19903;-81
2022/05/16 13:01:47;;;;;;;;;;;30.40;99.90;;;;;;6344638;22;19906;-82
2022/05/16 13:04:31;;;;;;;;;;;30.60;99.90;;;;;;6345245;22;19907;-82
2022/05/16 13:07:08;;;;;;;;;;;30.80;99.90;;;;;;6345700;22;19903;-82
2022/05/16 13:09:33;;;;;;;;;;;31.00;99.90;;;;;;6346484;22;19926;-81
2022/05/16 13:12:14;;;;;;;;;;;31.30;99.90;;;;;;6345904;22;19929;-81
2022/05/16 13:15:02;;;;;;;;;;;31.30;99.90;;;;;;6345651;22;19914;-81
2022/05/16 13:17:41;;;;;;;;;;;30.90;99.90;;;;;;6343376;22;19902;-81
2022/05/16 13:20:12;;;;;;;;;;;30.60;99.90;;;;;;6343496;22;20333;-81
2022/05/16 13:22:40;;;;;;;;;;;30.10;99.90;;;;;;6344710;22;19903;-81
2022/05/16 13:25:05;;;;;;;;;;;29.80;99.90;;;;;;6346374;22;19945;-82
2022/05/16 13:30:17;;;;;;;;;;;29.70;99.90;;;;;;6346560;22;20247;-82
2022/05/16 13:32:43;;;;;;;;;;;30.10;99.90;;;;;;6342680;22;19902;-82
2022/05/16 13:35:10;;;;;;;;;;;30.10;99.90;;;;;;6345252;22;19956;-81
2022/05/16 13:37:44;;;;;;;;;;;30.00;99.90;;;;;;6344006;22;19911;-81
2022/05/16 13:40:21;;;;;;;;;;;29.40;99.90;;;;;;6345718;22;19903;-82
2022/05/16 13:42:46;;;;;;;;;;;29.20;99.90;;;;;;6346476;22;19902;-82
2022/05/16 13:45:12;;;;;;;;;;;28.90;99.90;;;;;;6344528;22;19909;-80
2022/05/16 13:47:41;;;;;;;;;;;28.20;99.90;;;;;;6343910;22;19903;-81
2022/05/16 13:50:18;;;;;;;;;;;28.00;99.90;;;;;;6343992;22;20229;-81
2022/05/16 13:52:43;;;;;;;;;;;27.60;99.90;;;;;;6345301;22;19902;-80
2022/05/16 13:55:10;;;;;;;;;;;27.40;99.90;;;;;;6345308;22;19913;-81
2022/05/16 13:57:36;;;;;;;;;;;27.40;99.90;;;;;;6345358;22;19921;-81
2022/05/16 14:00:14;;;;;;;;;;;27.20;99.90;;;;;;6345067;22;19909;-81
2022/05/16 14:02:41;;;;;;;;;;;27.00;99.90;;;;;;6350356;22;19903;-81
2022/05/16 14:05:10;;;;;;;;;;;26.80;99.90;;;;;;6349646;22;19972;-81
2022/05/16 14:07:36;;;;;;;;;;;26.50;99.90;;;;;;6345491;22;19902;-81
2022/05/16 14:10:09;;;;;;;;;;;26.40;99.90;;;;;;6347491;22;20329;-81
2022/05/16 14:12:46;;;;;;;;;;;26.20;99.90;;;;;;6343526;22;19906;-80
2022/05/16 14:15:26;;;;;;;;;;;25.80;99.90;;;;;;6346597;22;19902;-80
2022/05/16 14:18:01;;;;;;;;;;;25.60;99.90;;;;;;6345959;22;19910;-81
2022/05/16 14:20:26;;;;;;;;;;;25.30;99.90;;;;;;6345395;22;19902;-80
2022/05/16 14:22:57;;;;;;;;;;;25.10;99.90;;;;;;6347586;22;19902;-81
2022/05/16 14:25:26;;;;;;;;;;;24.90;99.90;;;;;;6347273;22;20329;-81
2022/05/16 14:28:06;;;;;;;;;;;24.80;99.90;;;;;;6345568;22;20311;-80
2022/05/16 14:30:32;;;;;;;;;;;24.60;99.90;;;;;;6349267;22;19902;-81
2022/05/16 14:32:59;;;;;;;;;;;24.50;99.90;;;;;;6347459;22;20015;-80
2022/05/16 14:35:27;;;;;;;;;;;24.60;99.90;;;;;;6346087;22;19906;-81
2022/05/16 14:37:54;;;;;;;;;;;24.70;99.90;;;;;;6349507;22;20213;-81
2022/05/16 14:40:21;;;;;;;;;;;24.90;99.90;;;;;;6321626;22;19907;-81
2022/05/16 14:43:00;;;;;;;;;;;24.90;99.90;;;;;;6323349;22;19903;-81
2022/05/16 14:46:42;;;;;;;;;;;24.90;99.90;;;;;;6320509;22;19906;-80
2022/05/16 14:48:11;;;;;;;;;;;24.80;99.90;;;;;;6347475;22;19907;-80
2022/05/16 14:50:37;;;;;;;;;;;24.60;99.90;;;;;;6321315;22;19906;-80
2022/05/16 14:53:06;;;;;;;;;;;24.40;99.90;;;;;;6310998;22;20230;-76
2022/05/16 14:55:32;;;;;;;;;;;24.30;99.90;;;;;;6336304;22;19907;-75
2022/05/16 14:58:00;;;;;;;;;;;24.10;99.90;;;;;;6308980;22;19977;-75
2022/05/16 15:05:55;;;;;;;;;;;24.20;99.90;;;;;;6336833;22;20409;-75
2022/05/16 15:08:25;;;;;;;;;;;24.20;99.90;;;;;;6334127;22;19906;-78
2022/05/16 15:10:51;;;;;;;;;;;24.20;99.90;;;;;;6334442;22;19902;-75
2022/05/16 15:13:17;;;;;;;;;;;24.20;99.90;;;;;;6308159;22;19903;-75
2022/05/16 15:15:42;;;;;;;;;;;24.20;99.90;;;;;;6338017;22;19982;-75
2022/05/16 15:18:10;;;;;;;;;;;24.20;99.90;;;;;;6308955;22;19913;-75
2022/05/16 15:20:38;;;;;;;;;;;24.20;99.90;;;;;;6308751;22;19910;-76
2022/05/16 15:23:04;;;;;;;;;;;24.10;99.90;;;;;;6336276;22;19913;-75
2022/05/16 15:25:31;;;;;;;;;;;24.10;99.90;;;;;;6310117;22;19906;-75
2022/05/16 15:27:57;;;;;;;;;;;24.00;99.90;;;;;;6309613;22;19938;-76
2022/05/16 15:30:22;;;;;;;;;;;23.90;99.90;;;;;;6338038;22;20403;-75
2022/05/16 15:32:50;;;;;;;;;;;23.90;99.90;;;;;;6337179;22;19907;-75
2022/05/16 15:35:17;;;;;;;;;;;23.80;99.90;;;;;;6310550;22;19903;-75
2022/05/16 15:37:43;;;;;;;;;;;23.80;99.90;;;;;;6336673;22;19935;-76
2022/05/16 15:40:09;;;;;;;;;;;23.90;99.90;;;;;;6337623;22;19942;-75
2022/05/16 15:42:34;;;;;;;;;;;23.90;99.90;;;;;;6335661;22;19911;-74
2022/05/16 15:45:01;;;;;;;;;;;23.90;99.90;;;;;;6337274;22;19993;-76
2022/05/16 15:47:29;;;;;;;;;;;24.00;99.90;;;;;;6337561;22;19910;-75
2022/05/16 15:49:55;;;;;;;;;;;24.20;99.90;;;;;;6338331;22;19910;-75
2022/05/16 15:52:22;;;;;;;;;;;24.30;99.90;;;;;;6338059;22;19906;-75
2022/05/16 15:54:47;;;;;;;;;;;24.40;99.90;;;;;;6310894;22;19903;-75
2022/05/16 15:57:13;;;;;;;;;;;24.40;99.90;;;;;;6337491;22;19909;-75
2022/05/16 15:59:39;;;;;;;;;;;24.40;99.90;;;;;;6310938;22;20201;-76
2022/05/16 16:02:09;;;;;;;;;;;24.30;99.90;;;;;;6309811;22;20311;-76
2022/05/16 16:10:03;;;;;;;;;;;24.40;99.90;;;;;;6338682;22;19993;-75
2022/05/16 16:12:29;;;;;;;;;;;24.40;99.90;;;;;;6336306;22;19934;-76
2022/05/16 16:14:59;;;;;;;;;;;24.30;99.90;;;;;;6336107;22;19911;-79
2022/05/16 16:17:29;;;;;;;;;;;24.30;99.90;;;;;;6335853;22;19959;-76
2022/05/16 16:19:54;;;;;;;;;;;24.30;99.90;;;;;;6310040;22;19997;-77
2022/05/16 16:22:20;;;;;;;;;;;24.30;99.90;;;;;;6310455;22;19969;-76
2022/05/16 16:24:45;;;;;;;;;;;24.30;99.90;;;;;;6337696;22;19940;-76
2022/05/16 16:27:11;;;;;;;;;;;24.30;99.90;;;;;;6336093;22;19969;-77
2022/05/16 16:29:37;;;;;;;;;;;24.40;99.90;;;;;;6338130;22;19905;-76
2022/05/16 16:32:04;;;;;;;;;;;24.30;99.90;;;;;;6310255;22;19953;-76
2022/05/16 16:34:30;;;;;;;;;;;24.40;99.90;;;;;;6310516;22;20292;-76
2022/05/16 16:36:56;;;;;;;;;;;24.30;99.90;;;;;;6336025;22;19914;-76
2022/05/16 16:39:21;;;;;;;;;;;24.40;99.90;;;;;;6336871;22;19914;-76
2022/05/16 16:41:47;;;;;;;;;;;24.40;99.90;;;;;;6307835;22;19961;-76
2022/05/16 16:44:13;;;;;;;;;;;24.40;99.90;;;;;;6336450;22;19907;-76
2022/05/16 16:46:41;;;;;;;;;;;24.50;99.90;;;;;;6335144;22;19902;-76
2022/05/16 16:49:07;;;;;;;;;;;24.60;99.90;;;;;;6337870;22;19926;-76
2022/05/16 16:59:52;;;;;;;;;;;24.90;99.90;;;;;;6336910;22;19909;-76
2022/05/16 17:02:21;;;;;;;;;;;25.10;99.90;;;;;;6337946;22;20297;-76
2022/05/16 17:04:50;;;;;;;;;;;25.10;99.90;;;;;;6309075;22;20383;-76
2022/05/16 17:07:16;;;;;;;;;;;25.00;99.90;;;;;;6337157;22;20248;-76
2022/05/16 17:09:42;;;;;;;;;;;24.90;99.90;;;;;;6337378;22;19910;-77
2022/05/16 17:12:08;;;;;;;;;;;24.90;99.90;;;;;;6309850;22;19903;-76
2022/05/16 17:14:34;;;;;;;;;;;24.80;99.90;;;;;;6336501;22;19906;-77
2022/05/16 17:17:03;;;;;;;;;;;24.70;99.90;;;;;;6310207;22;19989;-76
2022/05/16 17:19:30;;;;;;;;;;;24.60;99.90;;;;;;6310197;22;20244;-76
2022/05/16 17:21:56;;;;;;;;;;;24.50;99.90;;;;;;6309909;22;19924;-76
2022/05/16 17:24:25;;;;;;;;;;;24.30;99.90;;;;;;6337841;22;19910;-76
2022/05/16 17:26:52;;;;;;;;;;;24.20;99.90;;;;;;6341154;22;19925;-82
2022/05/16 17:29:18;;;;;;;;;;;24.10;99.90;;;;;;6346535;22;19929;-81
2022/05/16 17:31:44;;;;;;;;;;;24.00;99.90;;;;;;6347653;22;19906;-82
2022/05/16 17:34:10;;;;;;;;;;;24.00;99.90;;;;;;6347471;22;20325;-81
2022/05/16 17:36:35;;;;;;;;;;;23.90;99.90;;;;;;6347922;22;19910;-82
2022/05/16 17:39:02;;;;;;;;;;;23.90;99.90;;;;;;6348324;22;19937;-82
2022/05/16 17:41:29;;;;;;;;;;;23.90;99.90;;;;;;6319608;22;19906;-82
2022/05/16 17:43:54;;;;;;;;;;;23.80;99.90;;;;;;6318935;22;20309;-82
2022/05/16 17:46:20;;;;;;;;;;;23.70;99.90;;;;;;6320453;22;19922;-82
2022/05/16 17:48:45;;;;;;;;;;;23.70;99.90;;;;;;6319871;22;19903;-82
2022/05/16 17:51:28;;;;;;;;;;;23.70;99.90;;;;;;6318322;22;19955;-82
2022/05/16 17:53:54;;;;;;;;;;;23.70;99.90;;;;;;6346060;22;20084;-81
2022/05/16 17:56:21;;;;;;;;;;;23.80;99.90;;;;;;6319659;22;19922;-82
2022/05/16 17:58:46;;;;;;;;;;;23.90;99.90;;;;;;6345694;22;19928;-82
2022/05/16 18:01:12;;;;;;;;;;;24.00;99.90;;;;;;6318902;22;19902;-81
2022/05/16 18:03:37;;;;;;;;;;;23.90;99.90;;;;;;6319045;22;19938;-81
2022/05/16 18:06:03;;;;;;;;;;;23.80;99.90;;;;;;6319524;22;19943;-82
2022/05/16 18:08:30;;;;;;;;;;;23.70;99.90;;;;;;6346780;22;20244;-82
2022/05/16 18:13:40;;;;;;;;;;;23.60;99.90;;;;;;6348160;22;19913;-83
2022/05/16 18:16:06;;;;;;;;;;;23.50;99.90;;;;;;6347316;22;19938;-82
2022/05/16 18:18:32;;;;;;;;;;;23.40;99.90;;;;;;6319592;22;19909;-82
2022/05/16 18:20:58;;;;;;;;;;;23.40;99.90;;;;;;6318912;22;19981;-81
2022/05/16 18:23:24;;;;;;;;;;;23.30;99.90;;;;;;6344735;22;19903;-82
2022/05/16 18:25:51;;;;;;;;;;;23.30;99.90;;;;;;6317635;22;19902;-81
2022/05/16 18:28:17;;;;;;;;;;;23.20;99.90;;;;;;6317630;22;19909;-81
2022/05/16 18:30:43;;;;;;;;;;;23.10;99.90;;;;;;6345231;22;19910;-82
2022/05/16 18:33:09;;;;;;;;;;;23.00;99.90;;;;;;6346269;22;19911;-82
2022/05/16 18:35:35;;;;;;;;;;;23.00;99.90;;;;;;6346404;22;19910;-80
2022/05/16 18:38:00;;;;;;;;;;;22.90;99.90;;;;;;6331966;22;19988;-82
2022/05/16 18:40:25;;;;;;;;;;;22.80;99.90;;;;;;6343847;22;19929;-82
2022/05/16 18:51:13;;;;;;;;;;;22.60;99.90;;;;;;6346816;22;20287;-81
2022/05/16 18:53:39;;;;;;;;;;;22.50;99.90;;;;;;6342843;22;20291;-81
2022/05/16 18:56:05;;;;;;;;;;;22.40;99.90;;;;;;6344700;22;19981;-82
2022/05/16 18:58:30;;;;;;;;;;;22.30;99.90;;;;;;6343925;22;20027;-81
2022/05/16 19:00:56;;;;;;;;;;;22.20;99.90;;;;;;6345702;22;19909;-81
2022/05/16 19:03:23;;;;;;;;;;;22.20;99.90;;;;;;6345307;22;19906;-82
2022/05/16 19:05:49;;;;;;;;;;;22.10;99.90;;;;;;6346385;22;19910;-81
2022/05/16 19:08:15;;;;;;;;;;;22.00;99.90;;;;;;6345032;22;19902;-82
2022/05/16 19:10:46;;;;;;;;;;;21.90;99.90;;;;;;6346830;22;19909;-81
2022/05/16 19:13:11;;;;;;;;;;;21.80;99.90;;;;;;6346344;22;19902;-83
2022/05/16 19:15:38;;;;;;;;;;;21.70;99.90;;;;;;6346626;22;20332;-80